Time;durP1;ratioP1;P1;durP2;ratioP2;P2;SDS_P1;SDS_P2;PMS_P1;PMS_P2;Temp;Humidity;BMP_temperature;BMP_pressure;BME280_temperature;BME280_humidity;BME280_pressure;Samples;Min_cycle;Max_cycle;Signal;HPM_P1;HPM_P2
2021/12/19 00:01:09;;;;;;;0.73;0.73;;;17.60;60.80;;;;;;5052370;28;20187;-59
2021/12/19 00:03:51;;;;;;;0.75;0.73;;;17.60;60.80;;;;;;5051265;28;20906;-58
2021/12/19 00:09:02;;;;;;;1.05;0.90;;;17.60;60.80;;;;;;5052525;28;20289;-58
2021/12/19 00:11:29;;;;;;;0.75;0.75;;;17.60;60.80;;;;;;5051025;28;20253;-60
2021/12/19 00:13:55;;;;;;;0.75;0.68;;;17.60;60.80;;;;;;5051990;28;20175;-59
2021/12/19 00:16:21;;;;;;;0.70;0.70;;;17.60;60.80;;;;;;5051904;28;20181;-60
2021/12/19 00:18:47;;;;;;;1.00;0.90;;;17.60;60.80;;;;;;5051107;28;20171;-59
2021/12/19 00:21:15;;;;;;;0.77;0.77;;;17.60;60.80;;;;;;5051830;28;20489;-61
2021/12/19 00:23:41;;;;;;;0.60;0.60;;;17.60;60.80;;;;;;5051514;28;20179;-60
2021/12/19 00:26:06;;;;;;;1.00;0.70;;;17.60;60.80;;;;;;5051065;28;20270;-60
2021/12/19 00:28:32;;;;;;;0.90;0.90;;;17.60;60.80;;;;;;5051421;28;20205;-59
2021/12/19 00:30:57;;;;;;;0.80;0.80;;;17.50;60.80;;;;;;5051574;28;20278;-60
2021/12/19 00:33:23;;;;;;;0.80;0.80;;;17.50;60.80;;;;;;5050514;28;20241;-58
2021/12/19 00:35:48;;;;;;;1.08;1.00;;;17.50;60.70;;;;;;5051766;28;20182;-59
2021/12/19 00:38:14;;;;;;;1.00;0.77;;;17.50;60.70;;;;;;5051572;28;20540;-59
2021/12/19 00:40:39;;;;;;;0.75;0.75;;;17.50;60.80;;;;;;5050689;28;20178;-59
2021/12/19 00:43:09;;;;;;;0.93;0.70;;;17.50;60.80;;;;;;5051697;28;20292;-60
2021/12/19 00:45:36;;;;;;;0.80;0.80;;;17.50;60.80;;;;;;5050649;28;20245;-59
2021/12/19 00:48:05;;;;;;;0.70;0.70;;;17.50;60.80;;;;;;5051238;28;20292;-59
2021/12/19 00:50:30;;;;;;;0.90;0.90;;;17.50;60.70;;;;;;5051066;28;20658;-59
2021/12/19 00:52:56;;;;;;;0.80;0.60;;;17.50;60.70;;;;;;5050900;28;20224;-59
2021/12/19 00:55:22;;;;;;;0.80;0.80;;;17.40;60.70;;;;;;5051115;28;20185;-59
2021/12/19 00:57:48;;;;;;;0.75;0.75;;;17.50;60.80;;;;;;5051466;28;20548;-59
2021/12/19 01:00:15;;;;;;;0.68;0.68;;;17.40;61.50;;;;;;5050301;28;20641;-59
2021/12/19 01:02:41;;;;;;;0.82;0.82;;;17.40;60.60;;;;;;5051039;28;20187;-58
2021/12/19 01:05:07;;;;;;;0.70;0.70;;;17.40;60.60;;;;;;5051475;28;20184;-58
2021/12/19 01:07:32;;;;;;;0.70;0.70;;;17.40;60.60;;;;;;5050245;28;20190;-59
2021/12/19 01:09:58;;;;;;;0.90;0.90;;;17.40;60.60;;;;;;5051169;28;20269;-60
2021/12/19 01:12:24;;;;;;;1.20;0.70;;;17.40;60.60;;;;;;5050849;28;20298;-59
2021/12/19 01:14:50;;;;;;;1.48;0.60;;;17.40;60.60;;;;;;5050611;28;20203;-59
2021/12/19 01:17:16;;;;;;;0.60;0.60;;;17.40;60.60;;;;;;5051039;28;20218;-59
2021/12/19 01:19:42;;;;;;;0.70;0.70;;;17.30;60.60;;;;;;5050996;28;20866;-59
2021/12/19 01:22:07;;;;;;;0.77;0.77;;;17.40;60.50;;;;;;5050669;28;20258;-60
2021/12/19 01:24:33;;;;;;;0.75;0.70;;;17.30;60.50;;;;;;5053821;28;20179;-59
2021/12/19 01:26:58;;;;;;;0.65;0.65;;;17.30;60.60;;;;;;5055119;28;20171;-59
2021/12/19 01:29:24;;;;;;;0.82;0.60;;;17.30;60.50;;;;;;5053953;28;20175;-59
2021/12/19 01:31:49;;;;;;;1.00;0.70;;;17.30;60.50;;;;;;5054804;28;20618;-59
2021/12/19 01:34:15;;;;;;;0.63;0.63;;;17.30;60.60;;;;;;5055155;28;20171;-59
2021/12/19 01:36:41;;;;;;;0.70;0.70;;;17.30;60.50;;;;;;5053991;28;20167;-59
2021/12/19 01:39:07;;;;;;;0.70;0.70;;;17.30;60.50;;;;;;5054696;28;20580;-59
2021/12/19 01:41:32;;;;;;;0.70;0.60;;;17.30;60.60;;;;;;5054388;28;20179;-59
2021/12/19 01:43:58;;;;;;;0.70;0.70;;;17.30;60.60;;;;;;5053851;28;20182;-59
2021/12/19 01:46:23;;;;;;;0.73;0.68;;;17.30;60.50;;;;;;5054072;28;20724;-59
2021/12/19 01:48:49;;;;;;;0.57;0.57;;;17.30;60.60;;;;;;5054120;28;20171;-58
2021/12/19 01:51:14;;;;;;;0.88;0.80;;;17.30;60.50;;;;;;5054586;28;20249;-59
2021/12/19 01:53:40;;;;;;;0.50;0.50;;;17.20;60.50;;;;;;5054401;28;20204;-59
2021/12/19 01:56:07;;;;;;;0.90;0.90;;;17.20;60.50;;;;;;5053881;28;20171;-60
2021/12/19 01:58:32;;;;;;;0.57;0.57;;;17.20;60.50;;;;;;5054084;28;20577;-59
2021/12/19 02:00:58;;;;;;;0.55;0.55;;;17.20;60.40;;;;;;5054328;28;20262;-59
2021/12/19 02:03:24;;;;;;;0.75;0.75;;;17.20;60.40;;;;;;5053340;28;20209;-59
2021/12/19 02:05:49;;;;;;;0.50;0.50;;;17.20;60.40;;;;;;5054470;28;20265;-58
2021/12/19 02:08:16;;;;;;;0.63;0.63;;;17.20;60.30;;;;;;5054266;28;20206;-58
2021/12/19 02:10:41;;;;;;;0.60;0.60;;;17.20;60.30;;;;;;5053120;28;20306;-58
2021/12/19 02:13:08;;;;;;;0.57;0.57;;;17.20;60.30;;;;;;5054145;28;20269;-59
2021/12/19 02:15:33;;;;;;;0.52;0.52;;;17.20;60.40;;;;;;5053984;28;20171;-60
2021/12/19 02:18:05;;;;;;;0.60;0.60;;;17.20;60.40;;;;;;5053676;28;20236;-59
2021/12/19 02:20:35;;;;;;;1.20;0.75;;;17.20;60.30;;;;;;5053905;28;20182;-60
2021/12/19 02:23:01;;;;;;;0.45;0.45;;;17.10;60.40;;;;;;5054045;28;20183;-59
2021/12/19 02:25:27;;;;;;;0.57;0.57;;;17.20;60.40;;;;;;5052983;28;20217;-58
2021/12/19 02:27:54;;;;;;;0.73;0.70;;;17.10;60.30;;;;;;5053771;28;20228;-59
2021/12/19 02:30:20;;;;;;;0.60;0.60;;;17.10;60.30;;;;;;5053648;28;20199;-59
2021/12/19 02:32:45;;;;;;;0.60;0.57;;;17.10;60.40;;;;;;5053321;28;20649;-58
2021/12/19 02:35:15;;;;;;;0.60;0.60;;;17.10;60.40;;;;;;5053734;28;20171;-58
2021/12/19 02:48:40;;;;;;;0.40;0.40;;;17.10;60.40;;;;;;5053145;28;20266;-58
2021/12/19 02:51:06;;;;;;;0.50;0.50;;;17.10;61.20;;;;;;5053664;28;20289;-58
2021/12/19 02:53:36;;;;;;;0.60;0.60;;;17.10;60.40;;;;;;5052515;28;20176;-59
2021/12/19 02:56:04;;;;;;;0.30;0.30;;;17.10;60.40;;;;;;5053512;28;20350;-60
2021/12/19 02:58:30;;;;;;;0.40;0.40;;;17.10;60.40;;;;;;5053041;28;20178;-59
2021/12/19 03:00:56;;;;;;;0.60;0.60;;;17.00;60.30;;;;;;5052536;28;20175;-59
2021/12/19 03:03:21;;;;;;;0.40;0.40;;;17.00;60.20;;;;;;5052586;28;20186;-59
2021/12/19 03:05:47;;;;;;;0.73;0.52;;;17.10;60.30;;;;;;5053421;28;20186;-58
2021/12/19 03:08:12;;;;;;;0.50;0.50;;;17.00;60.20;;;;;;5052369;28;20179;-59
2021/12/19 03:18:50;;;;;;;0.40;0.40;;;17.00;61.00;;;;;;5052859;28;20177;-59
2021/12/19 03:21:17;;;;;;;0.40;0.40;;;17.00;60.20;;;;;;5052126;28;20179;-59
2021/12/19 03:23:43;;;;;;;0.50;0.50;;;17.00;60.10;;;;;;5052531;28;20213;-60
2021/12/19 03:26:09;;;;;;;0.40;0.40;;;17.00;60.20;;;;;;5052616;28;20175;-60
2021/12/19 03:28:34;;;;;;;0.40;0.40;;;17.00;60.20;;;;;;5051827;28;20645;-59
2021/12/19 03:31:00;;;;;;;0.40;0.40;;;17.00;60.20;;;;;;5052675;28;20207;-59
2021/12/19 03:33:26;;;;;;;0.38;0.38;;;17.00;60.20;;;;;;5052435;28;20178;-59
2021/12/19 03:35:51;;;;;;;0.50;0.50;;;17.00;60.30;;;;;;5051893;28;20175;-59
2021/12/19 03:38:17;;;;;;;0.50;0.50;;;17.00;60.20;;;;;;5052559;28;20245;-59
2021/12/19 03:40:43;;;;;;;0.38;0.38;;;16.90;60.10;;;;;;5052287;28;20175;-59
2021/12/19 03:43:09;;;;;;;0.50;0.50;;;16.90;60.10;;;;;;5051706;28;20598;-59
2021/12/19 03:45:35;;;;;;;0.55;0.55;;;16.90;60.10;;;;;;5051687;28;20178;-60
2021/12/19 03:48:01;;;;;;;0.47;0.47;;;16.90;60.10;;;;;;5052105;28;20706;-59
2021/12/19 03:50:27;;;;;;;0.40;0.40;;;16.90;60.00;;;;;;5051772;28;20262;-59
2021/12/19 03:52:53;;;;;;;0.50;0.50;;;16.90;60.00;;;;;;5052355;28;20270;-59
2021/12/19 03:55:20;;;;;;;0.40;0.40;;;16.90;60.10;;;;;;5052085;28;20265;-60
2021/12/19 03:57:46;;;;;;;0.40;0.40;;;16.90;60.00;;;;;;5051855;28;20179;-60
2021/12/19 04:00:13;;;;;;;0.50;0.50;;;16.90;60.20;;;;;;5052626;28;20365;-61
2021/12/19 04:02:39;;;;;;;0.57;0.57;;;16.90;60.10;;;;;;5051399;28;20321;-59
2021/12/19 04:05:04;;;;;;;0.55;0.55;;;16.90;60.10;;;;;;5052026;28;20673;-60
2021/12/19 04:07:30;;;;;;;0.35;0.35;;;16.90;60.10;;;;;;5051740;28;20266;-59
2021/12/19 04:09:55;;;;;;;0.40;0.40;;;16.80;60.20;;;;;;5051350;28;20294;-60
2021/12/19 04:12:24;;;;;;;0.40;0.40;;;16.80;60.10;;;;;;5051557;28;20306;-60
2021/12/19 04:14:50;;;;;;;0.50;0.50;;;16.80;60.00;;;;;;5051990;28;20260;-60
2021/12/19 04:17:15;;;;;;;0.45;0.45;;;16.80;60.10;;;;;;5051302;28;20669;-60
2021/12/19 04:19:40;;;;;;;0.40;0.40;;;16.80;60.10;;;;;;5051730;28;20171;-59
2021/12/19 04:22:06;;;;;;;0.60;0.60;;;16.80;60.00;;;;;;5051757;28;20172;-59
2021/12/19 04:24:32;;;;;;;0.40;0.40;;;16.80;60.00;;;;;;5050674;28;20249;-58
2021/12/19 04:26:57;;;;;;;0.40;0.40;;;16.80;60.10;;;;;;5052018;28;20512;-59
2021/12/19 04:29:24;;;;;;;0.50;0.50;;;16.80;60.10;;;;;;5051508;28;20494;-59
2021/12/19 04:31:50;;;;;;;0.68;0.40;;;16.80;60.10;;;;;;5051006;28;20215;-59
2021/12/19 04:34:17;;;;;;;0.30;0.30;;;16.80;60.10;;;;;;5051613;28;20577;-60
2021/12/19 04:36:44;;;;;;;0.52;0.52;;;16.80;60.20;;;;;;5051314;28;20646;-59
2021/12/19 04:50:48;;;;;;;0.40;0.40;;;16.80;60.20;;;;;;5051321;28;20178;-60
2021/12/19 05:00:15;;;;;;;0.38;0.38;;;16.70;60.10;;;;;;5054877;28;20167;-60
2021/12/19 05:16:13;;;;;;;0.40;0.40;;;16.70;60.20;;;;;;5055415;28;20233;-60
2021/12/19 05:18:40;;;;;;;0.47;0.45;;;16.70;60.10;;;;;;5054845;28;20684;-60
2021/12/19 05:21:17;;;;;;;0.30;0.30;;;16.70;60.20;;;;;;5054569;28;20175;-60
2021/12/19 05:26:11;;;;;;;0.40;0.40;;;16.70;60.10;;;;;;5055257;28;20175;-60
2021/12/19 05:28:36;;;;;;;1.20;0.50;;;16.70;60.20;;;;;;5054104;28;20172;-60
2021/12/19 05:31:02;;;;;;;0.30;0.30;;;16.70;61.00;;;;;;5054872;28;20228;-60
2021/12/19 05:33:28;;;;;;;0.65;0.30;;;16.70;60.20;;;;;;5054675;28;20249;-59
2021/12/19 05:44:14;;;;;;;0.30;0.30;;;16.60;60.10;;;;;;5054762;28;20229;-60
2021/12/19 05:46:40;;;;;;;0.55;0.40;;;16.60;60.10;;;;;;5054503;28;20254;-59
2021/12/19 05:49:06;;;;;;;0.30;0.30;;;16.60;60.10;;;;;;5053994;28;20634;-59
2021/12/19 05:51:33;;;;;;;0.32;0.32;;;16.60;60.10;;;;;;5054183;28;20206;-59
2021/12/19 05:53:58;;;;;;;0.38;0.38;;;16.60;60.10;;;;;;5054543;28;20544;-58
2021/12/19 05:56:24;;;;;;;0.35;0.35;;;16.60;60.20;;;;;;5053388;28;20644;-59
2021/12/19 05:58:49;;;;;;;0.20;0.20;;;16.60;60.20;;;;;;5054621;28;20172;-59
2021/12/19 06:01:15;;;;;;;0.30;0.30;;;16.60;60.20;;;;;;5054425;28;20179;-59
2021/12/19 06:03:40;;;;;;;0.30;0.30;;;16.60;60.20;;;;;;5053129;28;20515;-59
2021/12/19 06:06:06;;;;;;;0.47;0.40;;;16.60;60.20;;;;;;5054443;28;20172;-59
2021/12/19 06:08:32;;;;;;;0.38;0.38;;;16.60;60.20;;;;;;5053714;28;20168;-59
2021/12/19 06:10:57;;;;;;;0.40;0.40;;;16.60;60.20;;;;;;5053069;28;20565;-59
2021/12/19 06:13:23;;;;;;;0.40;0.40;;;16.80;60.30;;;;;;5053817;28;20274;-60
2021/12/19 06:15:54;;;;;;;0.50;0.50;;;16.60;60.20;;;;;;5054053;28;20641;-60
2021/12/19 06:18:19;;;;;;;0.40;0.40;;;16.60;60.20;;;;;;5053278;28;20551;-60
2021/12/19 06:20:45;;;;;;;0.30;0.30;;;16.60;60.30;;;;;;5054070;28;20267;-60
2021/12/19 06:23:10;;;;;;;0.28;0.28;;;16.50;60.20;;;;;;5053190;28;20183;-59
2021/12/19 06:25:36;;;;;;;0.47;0.40;;;16.50;60.20;;;;;;5053584;28;20262;-59
2021/12/19 06:28:02;;;;;;;0.40;0.40;;;16.60;60.20;;;;;;5054007;28;20262;-60
2021/12/19 06:30:28;;;;;;;0.35;0.35;;;16.50;60.10;;;;;;5052908;28;20179;-60
2021/12/19 06:32:54;;;;;;;0.50;0.50;;;16.50;60.20;;;;;;5054025;28;20186;-59
2021/12/19 06:35:21;;;;;;;0.32;0.32;;;16.50;60.20;;;;;;5053642;28;20611;-59
2021/12/19 06:37:47;;;;;;;0.45;0.40;;;16.50;60.20;;;;;;5052930;28;20181;-60
2021/12/19 06:40:14;;;;;;;0.40;0.40;;;16.50;60.20;;;;;;5053571;28;20665;-60
2021/12/19 06:42:40;;;;;;;0.38;0.38;;;16.50;60.20;;;;;;5053521;28;20229;-59
2021/12/19 06:45:06;;;;;;;0.45;0.45;;;16.50;60.20;;;;;;5053226;28;20208;-60
2021/12/19 06:47:31;;;;;;;0.20;0.20;;;16.50;60.20;;;;;;5053180;28;20376;-59
2021/12/19 06:49:57;;;;;;;0.40;0.40;;;16.50;60.20;;;;;;5053457;28;20171;-59
2021/12/19 06:52:22;;;;;;;0.30;0.30;;;16.50;60.20;;;;;;5052127;28;20214;-59
2021/12/19 06:54:48;;;;;;;0.85;0.40;;;16.50;60.20;;;;;;5053554;28;20171;-59
2021/12/19 06:57:13;;;;;;;0.40;0.40;;;16.50;60.30;;;;;;5053358;28;20202;-60
2021/12/19 06:59:42;;;;;;;0.35;0.35;;;16.50;60.20;;;;;;5052409;28;20732;-59
2021/12/19 07:02:13;;;;;;;0.30;0.30;;;16.50;60.20;;;;;;5053273;28;20190;-60
2021/12/19 07:04:38;;;;;;;0.32;0.32;;;16.40;60.20;;;;;;5052935;28;20545;-59
2021/12/19 07:07:04;;;;;;;0.30;0.30;;;16.50;60.30;;;;;;5053187;28;20645;-57
2021/12/19 07:09:29;;;;;;;0.30;0.30;;;16.50;60.30;;;;;;5052969;28;20175;-58
2021/12/19 07:11:55;;;;;;;0.30;0.30;;;16.40;60.20;;;;;;5053427;28;20295;-59
2021/12/19 07:14:20;;;;;;;0.28;0.28;;;16.40;60.20;;;;;;5052528;28;20212;-61
2021/12/19 07:16:46;;;;;;;0.20;0.20;;;16.40;60.20;;;;;;5053165;28;20171;-59
2021/12/19 07:19:11;;;;;;;0.20;0.20;;;16.40;60.30;;;;;;5052864;28;20171;-59
2021/12/19 07:21:37;;;;;;;0.32;0.32;;;16.40;60.30;;;;;;5050969;28;20526;-59
2021/12/19 07:24:02;;;;;;;0.30;0.30;;;16.40;60.30;;;;;;5052987;28;20238;-59
2021/12/19 07:26:28;;;;;;;0.28;0.28;;;16.40;60.30;;;;;;5052013;28;20226;-59
2021/12/19 07:28:53;;;;;;;0.30;0.30;;;16.40;60.30;;;;;;5052665;28;20185;-58
2021/12/19 07:31:19;;;;;;;0.40;0.40;;;16.40;60.30;;;;;;5052299;28;20562;-58
2021/12/19 07:33:45;;;;;;;0.30;0.30;;;16.40;60.30;;;;;;5051929;28;20167;-58
2021/12/19 07:36:12;;;;;;;0.30;0.30;;;16.40;60.20;;;;;;5052652;28;20200;-59
2021/12/19 07:38:49;;;;;;;0.28;0.28;;;16.50;60.30;;;;;;5052489;28;20278;-59
2021/12/19 07:41:15;;;;;;;0.30;0.30;;;16.50;60.10;;;;;;5052024;28;20213;-59
2021/12/19 07:43:40;;;;;;;0.30;0.30;;;16.60;60.10;;;;;;5052398;28;20258;-59
2021/12/19 07:46:06;;;;;;;0.28;0.28;;;16.60;60.20;;;;;;5052346;28;20176;-59
2021/12/19 07:48:31;;;;;;;0.40;0.40;;;16.70;60.30;;;;;;5051405;28;20174;-57
2021/12/19 07:50:57;;;;;;;0.20;0.20;;;16.80;59.80;;;;;;5051883;28;20223;-58
2021/12/19 07:53:23;;;;;;;0.30;0.30;;;17.00;59.60;;;;;;5051928;28;20546;-59
2021/12/19 07:55:48;;;;;;;0.20;0.20;;;17.30;59.40;;;;;;5051778;28;20186;-59
2021/12/19 07:58:14;;;;;;;0.28;0.28;;;17.50;58.90;;;;;;5052433;28;20228;-59
2021/12/19 08:00:39;;;;;;;0.20;0.20;;;17.70;58.50;;;;;;5051956;28;20541;-67
2021/12/19 08:03:05;;;;;;;0.28;0.28;;;17.90;58.20;;;;;;5051529;28;20688;-66
2021/12/19 08:05:30;;;;;;;0.30;0.30;;;18.20;58.00;;;;;;5051728;28;20583;-66
2021/12/19 08:08:00;;;;;;;0.77;0.50;;;18.30;57.90;;;;;;5052288;28;20190;-63
2021/12/19 08:12:57;;;;;;;0.30;0.30;;;18.60;57.50;;;;;;5052200;28;20179;-64
2021/12/19 08:15:23;;;;;;;1.17;0.68;;;18.70;57.30;;;;;;5051563;28;20279;-65
2021/12/19 08:17:48;;;;;;;1.00;0.40;;;18.70;57.10;;;;;;5051145;28;20182;-65
2021/12/19 08:20:15;;;;;;;4.18;0.88;;;18.80;57.10;;;;;;5052017;28;20167;-65
2021/12/19 08:22:53;;;;;;;1.90;0.50;;;18.90;56.90;;;;;;5051090;28;20201;-65
2021/12/19 08:25:18;;;;;;;0.77;0.50;;;18.90;56.90;;;;;;5052116;28;20201;-65
2021/12/19 08:27:44;;;;;;;1.17;0.50;;;19.00;56.90;;;;;;5052065;28;20601;-65
2021/12/19 08:30:10;;;;;;;2.05;0.50;;;19.00;56.90;;;;;;5050942;28;20504;-66
2021/12/19 08:32:36;;;;;;;1.42;0.40;;;19.00;56.80;;;;;;5051174;28;20218;-65
2021/12/19 08:35:02;;;;;;;0.65;0.38;;;19.00;56.90;;;;;;5051838;28;20254;-66
2021/12/19 08:37:27;;;;;;;0.63;0.20;;;18.90;57.10;;;;;;5050747;28;20262;-65
2021/12/19 08:39:53;;;;;;;0.32;0.30;;;18.90;57.20;;;;;;5051849;28;20626;-64
2021/12/19 08:42:21;;;;;;;2.05;0.43;;;18.80;57.40;;;;;;5051393;28;20232;-65
2021/12/19 08:44:47;;;;;;;1.40;0.45;;;18.70;57.60;;;;;;5050761;28;20171;-66
2021/12/19 08:47:12;;;;;;;0.60;0.40;;;18.60;57.80;;;;;;5051256;28;20256;-64
2021/12/19 08:49:39;;;;;;;0.93;0.50;;;18.50;58.00;;;;;;5051441;28;21232;-65
2021/12/19 08:52:05;;;;;;;0.65;0.30;;;18.40;58.10;;;;;;5050759;28;20211;-65
2021/12/19 08:54:31;;;;;;;1.73;0.50;;;18.30;58.30;;;;;;5050932;28;20186;-66
2021/12/19 08:56:57;;;;;;;0.20;0.20;;;18.20;58.50;;;;;;5051288;28;20224;-67
2021/12/19 08:59:22;;;;;;;4.72;0.70;;;18.10;58.70;;;;;;5050432;28;20171;-64
2021/12/19 09:01:48;;;;;;;1.35;0.50;;;18.10;59.00;;;;;;5051295;28;20196;-70
2021/12/19 09:04:14;;;;;;;1.00;0.50;;;18.00;59.20;;;;;;5050367;28;20278;-66
2021/12/19 09:06:40;;;;;;;1.08;0.50;;;18.00;59.40;;;;;;5049761;28;20608;-65
2021/12/19 09:09:05;;;;;;;1.55;0.30;;;18.00;59.30;;;;;;5051383;28;20179;-64
2021/12/19 09:11:32;;;;;;;1.02;0.40;;;18.00;59.40;;;;;;5050820;28;20206;-64
2021/12/19 09:13:58;;;;;;;0.22;0.22;;;17.90;59.40;;;;;;5050280;28;20654;-67
2021/12/19 09:16:24;;;;;;;1.40;0.40;;;17.90;59.60;;;;;;5050823;28;20190;-65
2021/12/19 09:18:49;;;;;;;1.90;0.73;;;17.80;59.60;;;;;;5050985;28;20258;-64
2021/12/19 09:21:15;;;;;;;2.65;0.50;;;17.80;59.80;;;;;;5050398;28;20183;-64
2021/12/19 09:23:40;;;;;;;0.93;0.40;;;17.80;59.80;;;;;;5050666;28;20171;-67
2021/12/19 09:26:07;;;;;;;1.08;0.40;;;17.70;60.00;;;;;;5049956;28;20237;-64
2021/12/19 09:28:32;;;;;;;1.90;0.55;;;18.20;60.40;;;;;;5050779;28;20281;-64
2021/12/19 09:30:58;;;;;;;2.38;0.60;;;17.70;60.10;;;;;;5051181;28;20399;-65
2021/12/19 09:33:23;;;;;;;0.35;0.30;;;17.70;60.00;;;;;;5050199;28;20243;-65
2021/12/19 09:35:49;;;;;;;0.30;0.22;;;17.80;60.10;;;;;;5051315;28;20182;-66
2021/12/19 09:38:14;;;;;;;0.95;0.40;;;17.80;60.00;;;;;;5051374;28;20178;-65
2021/12/19 09:40:42;;;;;;;1.77;0.40;;;17.80;59.90;;;;;;5049942;28;20175;-68
2021/12/19 09:43:31;;;;;;;0.43;0.25;;;17.80;59.90;;;;;;5050847;28;20183;-66
2021/12/19 09:45:55;;;;;;;1.85;0.40;;;17.70;59.90;;;;;;5054012;28;20229;-65
2021/12/19 09:48:20;;;;;;;2.33;0.50;;;17.60;59.80;;;;;;5052447;28;20187;-65
2021/12/19 09:50:48;;;;;;;4.38;0.70;;;17.60;59.80;;;;;;5053188;28;20206;-63
2021/12/19 09:53:13;;;;;;;1.33;0.63;;;17.60;59.90;;;;;;5053338;28;20179;-66
2021/12/19 09:55:40;;;;;;;0.55;0.30;;;17.60;59.90;;;;;;5053589;28;20171;-67
2021/12/19 09:58:05;;;;;;;0.98;0.63;;;17.60;60.00;;;;;;5053251;28;20723;-67
2021/12/19 10:00:30;;;;;;;1.02;0.65;;;17.60;59.90;;;;;;5054307;28;20232;-67
2021/12/19 10:02:56;;;;;;;0.60;0.57;;;17.70;59.90;;;;;;5053930;28;20175;-66
2021/12/19 10:05:23;;;;;;;1.48;0.60;;;17.80;59.80;;;;;;5054098;28;20171;-67
2021/12/19 10:07:51;;;;;;;0.60;0.50;;;17.70;59.90;;;;;;5054324;28;20218;-66
2021/12/19 10:10:25;;;;;;;1.05;0.40;;;17.70;60.00;;;;;;5053725;28;20175;-67
2021/12/19 10:12:52;;;;;;;1.30;0.57;;;17.70;59.90;;;;;;5054497;28;20202;-67
2021/12/19 10:15:22;;;;;;;0.60;0.60;;;17.60;60.10;;;;;;5053817;28;20179;-67
2021/12/19 10:17:48;;;;;;;2.03;0.30;;;17.80;60.20;;;;;;5052941;28;20198;-68
2021/12/19 10:20:16;;;;;;;1.35;0.82;;;17.60;60.20;;;;;;5052656;28;20634;-67
2021/12/19 10:22:44;;;;;;;0.40;0.40;;;17.70;60.30;;;;;;5052893;28;20178;-66
2021/12/19 10:25:19;;;;;;;0.57;0.50;;;17.70;60.20;;;;;;5053896;28;20650;-66
2021/12/19 10:27:55;;;;;;;1.88;0.52;;;17.70;60.10;;;;;;5054133;28;20170;-66
2021/12/19 10:30:23;;;;;;;1.85;0.40;;;17.80;60.30;;;;;;5052857;28;20253;-67
2021/12/19 10:33:06;;;;;;;1.65;0.40;;;17.80;60.40;;;;;;5053721;28;20221;-66
2021/12/19 10:35:39;;;;;;;1.05;0.40;;;17.80;60.20;;;;;;5053706;28;20196;-67
2021/12/19 10:38:06;;;;;;;1.58;0.40;;;17.70;60.20;;;;;;5053245;28;20237;-68
2021/12/19 10:40:31;;;;;;;0.40;0.30;;;17.70;60.20;;;;;;5053603;28;20248;-67
2021/12/19 10:43:03;;;;;;;0.43;0.40;;;17.70;60.30;;;;;;5053533;28;20199;-66
2021/12/19 10:45:32;;;;;;;1.65;0.40;;;17.70;60.30;;;;;;5052690;28;20179;-67
2021/12/19 10:48:08;;;;;;;1.45;0.80;;;17.70;60.50;;;;;;5053049;28;20242;-65
2021/12/19 10:50:52;;;;;;;0.82;0.40;;;17.80;60.40;;;;;;5052745;28;20195;-67
2021/12/19 10:53:17;;;;;;;0.35;0.35;;;17.80;60.50;;;;;;5053458;28;20232;-66
2021/12/19 10:55:45;;;;;;;0.95;0.60;;;17.80;60.30;;;;;;5052935;28;20175;-66
2021/12/19 10:58:34;;;;;;;0.90;0.52;;;17.80;60.30;;;;;;5052528;28;20183;-69
2021/12/19 11:01:07;;;;;;;1.77;0.43;;;17.70;60.10;;;;;;5053318;28;20182;-64
2021/12/19 11:04:03;;;;;;;0.88;0.40;;;17.60;60.30;;;;;;5052741;28;20171;-67
2021/12/19 11:06:37;;;;;;;3.38;0.50;;;17.60;60.40;;;;;;5051448;28;20190;-68
2021/12/19 11:09:20;;;;;;;2.22;0.60;;;17.60;60.60;;;;;;5053693;28;20217;-67
2021/12/19 11:11:51;;;;;;;1.63;0.70;;;17.60;60.70;;;;;;5052306;28;20340;-67
2021/12/19 11:14:33;;;;;;;3.33;0.75;;;17.60;60.70;;;;;;5053073;28;20258;-66
2021/12/19 11:17:03;;;;;;;1.05;0.60;;;17.60;60.70;;;;;;5052951;28;20199;-67
2021/12/19 11:19:28;;;;;;;0.77;0.55;;;17.70;60.60;;;;;;5051958;28;20198;-67
2021/12/19 11:21:54;;;;;;;2.17;0.75;;;17.80;60.50;;;;;;5053137;28;20195;-67
2021/12/19 11:24:20;;;;;;;0.52;0.43;;;17.90;60.40;;;;;;5051311;28;20182;-67
2021/12/19 11:26:47;;;;;;;0.93;0.63;;;18.00;60.00;;;;;;5051927;28;20186;-66
2021/12/19 11:29:13;;;;;;;1.83;0.40;;;18.20;59.80;;;;;;5052718;28;20187;-68
2021/12/19 11:31:39;;;;;;;2.45;0.65;;;18.40;59.50;;;;;;5052298;28;20213;-69
2021/12/19 11:34:26;;;;;;;0.88;0.50;;;18.60;59.10;;;;;;5050736;28;20229;-69
2021/12/19 11:36:58;;;;;;;1.73;0.50;;;18.70;58.70;;;;;;5051685;28;20171;-69
2021/12/19 11:39:31;;;;;;;1.15;0.38;;;18.90;58.40;;;;;;5052267;28;20183;-67
2021/12/19 11:42:00;;;;;;;2.08;0.52;;;19.20;58.00;;;;;;5051852;28;20167;-65
2021/12/19 11:44:33;;;;;;;0.50;0.50;;;20.00;57.80;;;;;;5052037;28;20175;-66
2021/12/19 11:47:04;;;;;;;0.60;0.60;;;19.50;57.30;;;;;;5051438;28;20265;-65
2021/12/19 11:49:32;;;;;;;0.40;0.40;;;19.60;57.20;;;;;;5052037;28;20186;-66
2021/12/19 11:52:23;;;;;;;2.53;0.70;;;19.70;57.00;;;;;;5051871;28;20219;-68
2021/12/19 11:55:24;;;;;;;0.60;0.50;;;19.70;56.80;;;;;;5051870;28;20689;-69
2021/12/19 11:58:08;;;;;;;2.45;0.80;;;19.70;56.70;;;;;;5040441;28;20211;-65
2021/12/19 12:00:55;;;;;;;4.15;0.95;;;19.70;56.40;;;;;;5051898;28;20179;-73
2021/12/19 12:03:25;;;;;;;4.88;1.40;;;19.60;56.60;;;;;;5051997;28;20524;-68
2021/12/19 12:05:52;;;;;;;5.10;1.23;;;19.50;56.70;;;;;;5052509;28;20183;-68
2021/12/19 12:08:21;;;;;;;0.75;0.75;;;19.40;57.00;;;;;;5051261;28;20224;-68
2021/12/19 12:10:50;;;;;;;1.63;0.90;;;19.30;57.10;;;;;;5051998;28;20545;-62
2021/12/19 12:13:29;;;;;;;2.78;1.00;;;19.20;57.40;;;;;;5052007;28;20183;-67
2021/12/19 12:16:07;;;;;;;2.28;0.70;;;19.20;57.60;;;;;;5051521;28;20178;-68
2021/12/19 12:18:35;;;;;;;2.95;0.98;;;19.10;57.70;;;;;;5050608;28;20181;-67
2021/12/19 12:24:11;;;;;;;2.30;0.80;;;18.90;58.20;;;;;;5047042;28;20278;-68
2021/12/19 12:26:47;;;;;;;2.13;0.68;;;18.90;58.30;;;;;;5051707;28;20175;-66
2021/12/19 12:29:14;;;;;;;4.55;0.90;;;18.80;58.40;;;;;;5051081;28;20210;-67
2021/12/19 12:31:41;;;;;;;6.10;0.80;;;18.90;58.30;;;;;;5051561;28;20221;-68
2021/12/19 12:34:08;;;;;;;2.72;1.13;;;18.80;58.30;;;;;;5051644;28;20520;-65
2021/12/19 12:36:33;;;;;;;5.03;1.20;;;18.70;58.40;;;;;;5050936;28;20175;-71
2021/12/19 12:39:02;;;;;;;1.45;0.82;;;18.60;58.30;;;;;;5063356;28;20527;-68
2021/12/19 12:41:30;;;;;;;3.70;1.23;;;18.60;58.30;;;;;;5054392;28;20205;-69
2021/12/19 12:43:56;;;;;;;2.33;1.00;;;18.50;58.50;;;;;;5050921;28;20545;-68
2021/12/19 12:46:23;;;;;;;2.58;0.90;;;18.50;58.60;;;;;;5060994;28;20178;-69
2021/12/19 12:49:07;;;;;;;2.30;1.00;;;18.50;58.60;;;;;;5071331;28;20378;-68
2021/12/19 12:51:35;;;;;;;1.63;0.90;;;18.60;58.50;;;;;;5070622;28;20210;-68
2021/12/19 12:54:25;;;;;;;1.90;0.90;;;18.60;58.40;;;;;;5068752;28;20174;-68
2021/12/19 12:56:54;;;;;;;4.05;0.80;;;18.60;58.30;;;;;;5051458;28;20214;-69
2021/12/19 12:59:22;;;;;;;2.05;1.33;;;18.60;58.40;;;;;;5050560;28;20171;-68
2021/12/19 13:01:51;;;;;;;2.28;1.00;;;18.60;58.30;;;;;;5051578;28;20183;-68
2021/12/19 13:04:24;;;;;;;1.40;0.90;;;18.60;58.30;;;;;;5050947;28;20171;-68
2021/12/19 13:07:11;;;;;;;1.73;0.80;;;18.60;58.30;;;;;;5051591;28;20265;-69
2021/12/19 13:09:40;;;;;;;0.88;0.80;;;18.50;58.40;;;;;;5051043;28;20212;-68
2021/12/19 13:12:32;;;;;;;0.82;0.80;;;18.50;58.60;;;;;;5061701;28;20285;-68
2021/12/19 13:15:09;;;;;;;0.57;0.57;;;18.40;58.70;;;;;;5071408;28;20273;-67
2021/12/19 13:17:39;;;;;;;1.27;0.90;;;18.50;58.70;;;;;;5071134;28;20178;-67
2021/12/19 13:20:12;;;;;;;1.77;0.80;;;18.50;58.70;;;;;;5072577;28;20633;-68
2021/12/19 13:22:47;;;;;;;0.90;0.85;;;18.50;58.50;;;;;;5075002;28;20190;-68
2021/12/19 13:25:35;;;;;;;1.08;0.60;;;18.60;58.50;;;;;;5074575;28;20174;-67
2021/12/19 13:28:02;;;;;;;0.85;0.80;;;18.60;58.30;;;;;;5075277;28;20178;-68
2021/12/19 13:30:30;;;;;;;1.23;0.80;;;18.60;58.30;;;;;;5074587;28;20232;-69
2021/12/19 13:32:59;;;;;;;0.80;0.73;;;18.60;58.30;;;;;;5074257;28;20262;-68
2021/12/19 13:35:38;;;;;;;1.85;0.70;;;18.60;58.30;;;;;;5074682;28;20170;-70
2021/12/19 13:38:10;;;;;;;1.52;0.93;;;18.60;58.30;;;;;;5074971;28;20261;-68
2021/12/19 13:40:38;;;;;;;1.42;0.88;;;18.50;58.60;;;;;;5073733;28;20205;-68
2021/12/19 13:43:11;;;;;;;1.33;0.85;;;18.70;58.70;;;;;;5075092;28;20508;-68
2021/12/19 13:45:38;;;;;;;0.80;0.60;;;18.50;58.60;;;;;;5068407;28;20180;-69
2021/12/19 13:48:10;;;;;;;0.77;0.60;;;18.50;58.50;;;;;;5054037;28;20223;-68
2021/12/19 13:50:44;;;;;;;1.20;0.75;;;18.60;58.40;;;;;;5053026;28;20182;-69
2021/12/19 13:53:11;;;;;;;1.80;0.80;;;18.60;58.30;;;;;;5054896;28;20183;-67
2021/12/19 13:55:45;;;;;;;1.75;0.73;;;18.60;58.30;;;;;;5053673;28;20239;-70
2021/12/19 13:58:11;;;;;;;1.23;0.88;;;18.70;58.10;;;;;;5054916;28;20322;-68
2021/12/19 14:00:40;;;;;;;2.45;0.77;;;18.80;58.00;;;;;;5053734;28;20210;-69
2021/12/19 14:03:06;;;;;;;2.33;0.85;;;18.90;58.00;;;;;;5054670;28;20175;-68